Time;durP1;ratioP1;P1;durP2;ratioP2;P2;SDS_P1;SDS_P2;PMS_P1;PMS_P2;Temp;Humidity;BMP_temperature;BMP_pressure;BME280_temperature;BME280_humidity;BME280_pressure;Samples;Min_cycle;Max_cycle;Signal;HPM_P1;HPM_P2
2021/10/15 00:00:37;;;;;;;9.10;5.80;;;12.10;61.60;;;;;;5051704;28;20706;-47
2021/10/15 00:03:03;;;;;;;6.80;6.03;;;12.10;61.60;;;;;;5052481;28;20243;-43
2021/10/15 00:05:29;;;;;;;7.53;6.60;;;12.10;61.30;;;;;;5051973;28;20204;-43
2021/10/15 00:07:54;;;;;;;6.60;6.00;;;12.10;61.30;;;;;;5052502;28;20656;-43
2021/10/15 00:10:20;;;;;;;6.73;6.03;;;12.10;61.10;;;;;;5049601;28;20442;-43
2021/10/15 00:12:46;;;;;;;7.50;6.63;;;12.20;61.00;;;;;;5052471;28;20313;-43
2021/10/15 00:15:12;;;;;;;7.23;6.43;;;12.20;60.80;;;;;;5051779;28;20242;-47
2021/10/15 00:17:37;;;;;;;11.40;5.90;;;12.10;60.80;;;;;;5052256;28;20561;-43
2021/10/15 00:20:05;;;;;;;7.10;6.40;;;12.10;61.10;;;;;;5051174;28;20188;-43
2021/10/15 00:22:30;;;;;;;6.07;5.47;;;12.10;60.90;;;;;;5052425;28;20185;-44
2021/10/15 00:24:56;;;;;;;6.53;5.93;;;12.20;60.60;;;;;;5051517;28;20476;-43
2021/10/15 00:27:22;;;;;;;7.47;6.03;;;12.10;60.90;;;;;;5052439;28;20438;-43
2021/10/15 00:29:47;;;;;;;6.33;5.73;;;11.80;61.40;;;;;;5051025;28;20241;-46
2021/10/15 00:32:13;;;;;;;7.17;5.90;;;11.70;61.90;;;;;;5052036;28;20199;-48
2021/10/15 00:34:39;;;;;;;6.37;5.20;;;11.60;62.30;;;;;;5051336;28;20189;-48
2021/10/15 00:37:05;;;;;;;8.33;5.77;;;11.50;62.50;;;;;;5050282;28;20250;-43
2021/10/15 00:39:31;;;;;;;6.10;5.50;;;11.40;62.30;;;;;;5050773;28;20958;-47
2021/10/15 00:41:56;;;;;;;7.23;6.63;;;11.20;63.20;;;;;;5051973;28;20419;-49
2021/10/15 00:44:22;;;;;;;8.33;6.40;;;11.20;63.80;;;;;;5051141;28;20275;-43
2021/10/15 00:46:48;;;;;;;6.07;5.53;;;11.40;63.10;;;;;;5052026;28;20188;-43
2021/10/15 00:49:14;;;;;;;6.33;5.73;;;11.30;62.70;;;;;;5051101;28;20262;-43
2021/10/15 00:51:42;;;;;;;10.00;6.23;;;11.20;62.90;;;;;;5051011;28;20565;-44
2021/10/15 00:54:10;;;;;;;5.90;5.30;;;11.10;63.20;;;;;;5051246;28;20441;-44
2021/10/15 00:56:36;;;;;;;6.07;5.50;;;;;;;;;;5050177;28;20419;-44
2021/10/15 00:59:02;;;;;;;6.77;5.50;;;10.60;64.00;;;;;;5050367;28;20478;-48
2021/10/15 01:01:27;;;;;;;6.77;5.53;;;10.60;65.30;;;;;;5051143;28;20431;-43
2021/10/15 01:03:53;;;;;;;7.20;6.50;;;10.60;65.40;;;;;;5049175;28;20793;-47
2021/10/15 01:06:19;;;;;;;7.60;6.33;;;10.50;65.20;;;;;;5051826;28;20456;-44
2021/10/15 01:08:47;;;;;;;6.83;6.10;;;10.80;65.10;;;;;;5051429;28;20831;-44
2021/10/15 01:11:17;;;;;;;7.90;6.13;;;11.00;64.20;;;;;;5050653;28;20197;-45
2021/10/15 01:13:43;;;;;;;8.23;6.50;;;11.30;63.50;;;;;;5051658;28;20446;-43
2021/10/15 01:16:10;;;;;;;6.50;5.90;;;11.30;62.20;;;;;;5051007;28;20430;-46
2021/10/15 01:18:37;;;;;;;7.37;6.57;;;11.40;62.50;;;;;;5051410;28;20479;-43
2021/10/15 01:21:08;;;;;;;6.30;5.70;;;11.50;62.10;;;;;;5050300;28;20822;-47
2021/10/15 01:23:35;;;;;;;6.33;5.77;;;11.50;61.70;;;;;;5051695;28;20438;-43
2021/10/15 01:26:02;;;;;;;5.47;4.97;;;11.60;61.10;;;;;;5050803;28;20460;-48
2021/10/15 01:28:30;;;;;;;6.10;5.47;;;11.60;60.60;;;;;;5049492;28;20816;-44
2021/10/15 01:30:56;;;;;;;6.50;5.30;;;11.60;60.30;;;;;;5050115;28;20445;-44
2021/10/15 01:33:22;;;;;;;6.80;6.10;;;11.60;59.80;;;;;;5051455;28;21017;-45
2021/10/15 01:35:48;;;;;;;6.10;4.97;;;11.50;60.10;;;;;;5050817;28;20254;-47
2021/10/15 01:38:14;;;;;;;7.97;5.27;;;11.50;60.30;;;;;;5051177;28;20518;-49
2021/10/15 01:40:41;;;;;;;5.47;4.93;;;11.30;61.10;;;;;;5050087;28;20303;-43
2021/10/15 01:43:07;;;;;;;5.33;4.50;;;11.30;60.90;;;;;;5051189;28;20423;-46
2021/10/15 01:45:34;;;;;;;5.50;5.00;;;11.30;60.70;;;;;;5050633;28;20906;-47
2021/10/15 01:48:00;;;;;;;6.47;5.70;;;11.30;60.60;;;;;;5051128;28;20477;-49
2021/10/15 01:50:27;;;;;;;5.80;5.07;;;11.30;60.60;;;;;;5049760;28;20455;-48
2021/10/15 01:52:53;;;;;;;5.53;5.07;;;11.40;60.30;;;;;;5051095;28;20461;-45
2021/10/15 01:55:20;;;;;;;6.00;5.20;;;11.40;60.00;;;;;;5049103;28;20419;-49
2021/10/15 01:57:46;;;;;;;7.43;5.97;;;11.30;59.90;;;;;;5048844;28;20427;-43
2021/10/15 02:00:14;;;;;;;5.90;5.30;;;11.30;60.40;;;;;;5049871;28;20427;-49
2021/10/15 02:02:41;;;;;;;6.03;5.43;;;11.30;61.10;;;;;;5051254;28;20869;-43
2021/10/15 02:05:09;;;;;;;7.53;5.73;;;11.10;60.40;;;;;;5050483;28;20454;-47
2021/10/15 02:07:34;;;;;;;8.23;5.60;;;10.90;60.90;;;;;;5051316;28;20847;-47
2021/10/15 02:10:00;;;;;;;7.70;5.37;;;10.60;62.20;;;;;;5052269;28;20419;-46
2021/10/15 02:12:26;;;;;;;7.27;4.90;;;10.40;63.90;;;;;;5054462;28;20204;-45
2021/10/15 02:14:51;;;;;;;10.47;5.67;;;10.30;64.20;;;;;;5054136;28;20197;-48
2021/10/15 02:17:17;;;;;;;6.30;5.70;;;10.50;64.10;;;;;;5054696;28;20189;-44
2021/10/15 02:19:43;;;;;;;7.13;5.40;;;10.70;64.00;;;;;;5053537;28;20250;-48
2021/10/15 02:22:08;;;;;;;5.80;5.03;;;10.80;63.00;;;;;;5052986;28;20208;-43
2021/10/15 02:24:34;;;;;;;5.43;4.93;;;10.90;62.30;;;;;;5053713;28;20226;-49
2021/10/15 02:27:00;;;;;;;5.80;5.20;;;11.00;61.90;;;;;;5054517;28;20193;-46
2021/10/15 02:29:25;;;;;;;5.90;5.40;;;11.00;61.40;;;;;;5053505;28;20192;-45
2021/10/15 02:31:51;;;;;;;6.33;5.27;;;11.00;61.30;;;;;;5054534;28;20280;-44
2021/10/15 02:34:17;;;;;;;6.93;5.47;;;10.90;61.20;;;;;;5053580;28;20728;-49
2021/10/15 02:36:43;;;;;;;5.53;4.87;;;11.00;61.30;;;;;;5054248;28;20529;-46
2021/10/15 02:39:09;;;;;;;6.10;5.50;;;10.90;61.20;;;;;;5053529;28;20497;-45
2021/10/15 02:41:37;;;;;;;5.60;4.80;;;10.90;61.60;;;;;;5053852;28;20203;-48
2021/10/15 02:44:08;;;;;;;6.07;5.43;;;10.90;61.30;;;;;;5053504;28;20195;-44
2021/10/15 02:46:34;;;;;;;6.47;5.30;;;10.70;61.80;;;;;;5053941;28;20430;-49
2021/10/15 02:49:00;;;;;;;5.43;4.93;;;10.70;61.90;;;;;;5051642;28;20463;-45
2021/10/15 02:51:25;;;;;;;6.00;5.40;;;10.80;61.60;;;;;;5053614;28;20773;-44
2021/10/15 02:53:51;;;;;;;9.23;5.30;;;10.80;61.30;;;;;;5053567;28;20424;-47
2021/10/15 02:56:16;;;;;;;8.73;6.17;;;10.70;61.30;;;;;;5054012;28;20184;-48
2021/10/15 02:58:42;;;;;;;10.73;6.73;;;10.60;61.50;;;;;;5052255;28;20259;-49
2021/10/15 03:01:08;;;;;;;7.33;4.80;;;10.60;62.00;;;;;;5052838;28;20197;-48
2021/10/15 03:03:33;;;;;;;6.77;5.37;;;10.60;61.50;;;;;;5053751;28;20189;-48
2021/10/15 03:05:59;;;;;;;5.50;5.00;;;10.50;61.90;;;;;;5053214;28;20192;-49
2021/10/15 03:08:25;;;;;;;4.93;4.50;;;10.30;62.00;;;;;;5053907;28;20187;-49
2021/10/15 03:10:51;;;;;;;16.50;5.20;;;10.30;62.50;;;;;;5052870;28;20481;-46
2021/10/15 03:13:16;;;;;;;5.50;4.97;;;10.40;62.00;;;;;;5053524;28;20223;-48
2021/10/15 03:15:42;;;;;;;20.07;5.43;;;10.40;62.30;;;;;;5051011;28;20220;-48
2021/10/15 03:18:08;;;;;;;6.77;4.40;;;10.20;62.10;;;;;;5053402;28;20292;-48
2021/10/15 03:20:35;;;;;;;12.60;5.03;;;10.20;62.60;;;;;;5052467;28;20188;-47
2021/10/15 03:23:01;;;;;;;10.40;4.00;;;10.30;62.80;;;;;;5053270;28;20250;-47
2021/10/15 03:25:27;;;;;;;14.13;4.77;;;9.90;64.50;;;;;;5052593;28;20891;-48
2021/10/15 03:27:52;;;;;;;4.77;4.37;;;9.60;65.70;;;;;;5053633;28;20445;-44
2021/10/15 03:30:18;;;;;;;9.80;4.10;;;9.30;67.00;;;;;;5052759;28;20197;-46
2021/10/15 03:32:43;;;;;;;4.33;3.93;;;9.00;68.00;;;;;;5053026;28;20227;-48
2021/10/15 03:35:09;;;;;;;8.53;4.33;;;9.00;68.50;;;;;;5052632;28;20187;-48
2021/10/15 03:37:35;;;;;;;4.97;4.47;;;9.00;68.50;;;;;;5053153;28;20189;-46
2021/10/15 03:40:00;;;;;;;5.10;4.33;;;9.00;69.00;;;;;;5052151;28;20482;-45
2021/10/15 03:42:26;;;;;;;5.70;4.80;;;8.80;70.00;;;;;;5051091;28;20576;-50
2021/10/15 03:44:51;;;;;;;7.63;5.07;;;8.90;69.60;;;;;;5052655;28;20237;-48
2021/10/15 03:47:17;;;;;;;9.33;4.80;;;9.10;69.00;;;;;;5052898;28;20209;-49
2021/10/15 03:49:43;;;;;;;7.53;5.40;;;9.30;68.00;;;;;;5052296;28;20240;-43
2021/10/15 03:52:08;;;;;;;11.30;7.13;;;9.20;67.70;;;;;;5052664;28;20215;-44
2021/10/15 03:54:34;;;;;;;10.87;7.23;;;9.20;68.10;;;;;;5052389;28;20196;-43
2021/10/15 03:57:00;;;;;;;4.90;4.40;;;9.30;67.60;;;;;;5050699;28;20655;-43
2021/10/15 03:59:25;;;;;;;6.33;5.33;;;9.20;67.60;;;;;;5051900;28;20345;-43
2021/10/15 04:01:51;;;;;;;4.93;4.50;;;9.20;67.80;;;;;;5052567;28;20193;-43
2021/10/15 04:04:16;;;;;;;5.90;5.20;;;9.30;67.60;;;;;;5052103;28;20232;-43
2021/10/15 04:06:42;;;;;;;5.27;4.87;;;9.50;67.00;;;;;;5052517;28;20644;-43
2021/10/15 04:09:07;;;;;;;4.90;4.50;;;9.70;66.20;;;;;;5049852;28;20287;-43
2021/10/15 04:11:33;;;;;;;5.30;4.60;;;9.90;65.30;;;;;;5052205;28;20207;-43
2021/10/15 04:13:59;;;;;;;4.90;4.50;;;10.10;63.50;;;;;;5051994;28;20192;-43
2021/10/15 04:16:25;;;;;;;6.07;5.00;;;10.10;63.10;;;;;;5052364;28;20199;-44
2021/10/15 04:18:51;;;;;;;5.50;4.83;;;10.10;62.70;;;;;;5052094;28;20493;-43
2021/10/15 04:21:16;;;;;;;5.23;4.83;;;10.30;62.30;;;;;;5051498;28;20415;-43
2021/10/15 04:23:42;;;;;;;8.03;4.70;;;10.30;61.90;;;;;;5052437;28;20749;-46
2021/10/15 04:26:08;;;;;;;4.70;4.23;;;10.40;61.80;;;;;;5051677;28;20222;-43
2021/10/15 04:28:34;;;;;;;5.90;4.90;;;10.50;61.70;;;;;;5052192;28;20223;-44
2021/10/15 04:31:00;;;;;;;5.03;4.63;;;10.50;61.30;;;;;;5051210;28;20298;-43
2021/10/15 04:33:25;;;;;;;6.00;4.87;;;10.50;60.90;;;;;;5050655;28;20886;-45
2021/10/15 04:35:51;;;;;;;4.30;3.90;;;10.60;60.80;;;;;;5050972;28;20629;-43
2021/10/15 04:38:17;;;;;;;4.53;4.13;;;10.50;60.60;;;;;;5052030;28;20311;-43
2021/10/15 04:40:42;;;;;;;5.00;4.10;;;10.30;60.60;;;;;;5050970;28;21155;-42
2021/10/15 04:43:08;;;;;;;4.50;4.10;;;10.30;61.20;;;;;;5051840;28;20597;-43
2021/10/15 04:45:34;;;;;;;8.10;4.70;;;10.20;60.70;;;;;;5051407;28;20272;-44
2021/10/15 04:47:59;;;;;;;5.10;4.60;;;10.10;61.30;;;;;;5051883;28;20196;-44
2021/10/15 04:50:25;;;;;;;5.40;4.43;;;10.00;61.50;;;;;;5050934;28;20283;-43
2021/10/15 04:52:51;;;;;;;6.00;5.40;;;10.00;61.30;;;;;;5051789;28;20207;-43
2021/10/15 04:55:16;;;;;;;6.17;5.00;;;10.00;61.10;;;;;;5051165;28;20199;-43
2021/10/15 04:57:42;;;;;;;5.60;5.10;;;9.90;62.10;;;;;;5049724;28;20576;-43
2021/10/15 05:00:08;;;;;;;7.33;5.73;;;9.80;63.00;;;;;;5048673;28;20197;-44
2021/10/15 05:02:41;;;;;;;6.13;5.13;;;9.80;63.50;;;;;;5051637;28;20682;-43
2021/10/15 05:05:10;;;;;;;5.40;4.60;;;9.80;63.20;;;;;;5050991;28;20435;-43
2021/10/15 05:07:37;;;;;;;4.67;4.27;;;9.80;63.40;;;;;;5051444;28;20426;-43
2021/10/15 05:10:03;;;;;;;4.87;4.47;;;9.70;63.60;;;;;;5050547;28;20423;-43
2021/10/15 05:12:29;;;;;;;4.90;4.40;;;9.70;63.70;;;;;;5051514;28;20439;-44
2021/10/15 05:14:55;;;;;;;4.80;4.40;;;9.60;64.50;;;;;;5051005;28;20500;-43
2021/10/15 05:17:20;;;;;;;4.97;4.53;;;9.70;63.90;;;;;;5051564;28;20282;-43
2021/10/15 05:19:46;;;;;;;22.67;12.40;;;9.80;63.80;;;;;;5050086;28;20228;-43
2021/10/15 05:22:12;;;;;;;15.53;9.57;;;9.90;63.30;;;;;;5051639;28;20253;-44
2021/10/15 05:24:38;;;;;;;14.30;8.40;;;9.90;63.00;;;;;;5050675;28;20208;-44
2021/10/15 05:27:04;;;;;;;10.07;7.63;;;10.00;61.50;;;;;;5049640;28;20805;-43
2021/10/15 05:29:29;;;;;;;10.60;6.70;;;10.10;61.20;;;;;;5050492;28;20337;-44
2021/10/15 05:31:55;;;;;;;6.37;5.53;;;10.20;61.10;;;;;;5051359;28;20822;-42
2021/10/15 05:34:21;;;;;;;5.63;4.90;;;10.20;60.60;;;;;;5050938;28;20318;-45
2021/10/15 05:36:46;;;;;;;5.17;4.67;;;10.30;60.50;;;;;;5051079;28;20203;-43
2021/10/15 05:39:12;;;;;;;6.10;5.07;;;10.30;60.20;;;;;;5050245;28;20232;-43
2021/10/15 05:41:37;;;;;;;6.00;5.50;;;10.30;60.00;;;;;;5051426;28;20188;-44
2021/10/15 05:44:03;;;;;;;5.43;4.93;;;10.40;60.00;;;;;;5051450;28;20276;-46
2021/10/15 05:46:29;;;;;;;5.17;4.67;;;10.40;59.80;;;;;;5055390;28;20203;-44
2021/10/15 05:48:54;;;;;;;5.80;4.70;;;10.50;59.80;;;;;;5054308;28;20307;-43
2021/10/15 05:51:22;;;;;;;5.33;4.80;;;10.50;59.60;;;;;;5055068;28;20238;-44
2021/10/15 05:53:51;;;;;;;6.50;5.40;;;10.50;59.50;;;;;;5053154;28;20250;-43
2021/10/15 05:58:51;;;;;;;7.77;5.20;;;10.30;59.80;;;;;;5052554;28;20913;-44
2021/10/15 06:01:23;;;;;;;5.57;5.07;;;10.30;59.70;;;;;;5054747;28;20422;-49
2021/10/15 06:14:51;;;;;;;6.73;6.03;;;10.20;60.50;;;;;;5054220;28;20430;-43
2021/10/15 06:17:19;;;;;;;5.87;5.30;;;10.00;60.90;;;;;;5054464;28;20419;-43
2021/10/15 06:20:03;;;;;;;5.07;4.67;;;10.00;62.30;;;;;;5051738;28;20216;-43
2021/10/15 06:22:29;;;;;;;5.97;5.37;;;10.00;62.90;;;;;;5054668;28;20438;-46
2021/10/15 06:24:56;;;;;;;6.13;5.47;;;10.10;62.80;;;;;;5053975;28;20463;-43
2021/10/15 06:27:24;;;;;;;6.60;6.00;;;10.20;62.60;;;;;;5054362;28;20427;-46
2021/10/15 06:29:50;;;;;;;7.90;6.63;;;10.40;62.10;;;;;;5053467;28;20429;-43
2021/10/15 06:32:20;;;;;;;8.30;6.50;;;10.50;62.10;;;;;;5054433;28;20419;-46
2021/10/15 06:34:46;;;;;;;7.03;6.30;;;10.70;61.70;;;;;;5053410;28;20188;-43
2021/10/15 06:37:12;;;;;;;6.87;5.97;;;10.60;60.80;;;;;;5054359;28;20902;-43
2021/10/15 06:39:38;;;;;;;6.20;5.60;;;10.50;61.30;;;;;;5053189;28;20488;-47
2021/10/15 06:42:03;;;;;;;6.50;5.87;;;10.30;61.90;;;;;;5054237;28;20238;-48
2021/10/15 06:44:29;;;;;;;6.37;5.77;;;10.40;61.70;;;;;;5053464;28;20573;-44
2021/10/15 06:46:55;;;;;;;6.10;5.50;;;10.30;61.40;;;;;;5052229;28;20276;-44
2021/10/15 06:49:21;;;;;;;6.10;5.50;;;10.40;62.30;;;;;;5052948;28;20232;-44
2021/10/15 06:51:46;;;;;;;6.20;5.60;;;10.40;61.90;;;;;;5053900;28;20279;-48
2021/10/15 06:54:13;;;;;;;5.97;5.37;;;10.40;62.30;;;;;;5053166;28;20224;-43
2021/10/15 06:56:38;;;;;;;6.00;5.40;;;10.40;62.30;;;;;;5051727;28;20200;-43
2021/10/15 06:59:04;;;;;;;5.10;4.60;;;10.50;62.20;;;;;;5050709;28;20819;-44
2021/10/15 07:01:31;;;;;;;6.37;5.77;;;10.50;62.10;;;;;;5053705;28;20205;-45
2021/10/15 07:03:57;;;;;;;8.27;7.40;;;10.50;62.00;;;;;;5053363;28;20197;-43
2021/10/15 07:06:24;;;;;;;8.70;7.87;;;10.60;61.90;;;;;;5053579;28;20923;-43
2021/10/15 07:08:49;;;;;;;7.67;6.30;;;10.80;62.00;;;;;;5053029;28;20433;-43
2021/10/15 07:11:15;;;;;;;6.47;5.87;;;10.80;62.10;;;;;;5053544;28;20415;-43
2021/10/15 07:13:41;;;;;;;6.77;6.07;;;10.90;63.00;;;;;;5051988;28;20221;-44
2021/10/15 07:16:08;;;;;;;6.43;5.83;;;11.20;62.50;;;;;;5053182;28;20423;-43
2021/10/15 07:18:33;;;;;;;6.10;5.50;;;11.40;61.60;;;;;;5053212;28;20310;-44
2021/10/15 07:20:59;;;;;;;7.33;6.57;;;11.60;61.60;;;;;;5052700;28;20514;-43
2021/10/15 07:23:24;;;;;;;7.60;5.83;;;11.90;62.20;;;;;;5053452;28;20267;-45
2021/10/15 07:25:50;;;;;;;6.00;5.40;;;12.20;60.20;;;;;;5052812;28;20196;-43
2021/10/15 07:28:17;;;;;;;6.20;5.60;;;12.30;60.70;;;;;;5053201;28;20201;-44
2021/10/15 07:30:44;;;;;;;5.67;5.07;;;12.60;60.20;;;;;;5052739;28;20279;-48
2021/10/15 07:33:09;;;;;;;6.00;5.40;;;13.00;59.40;;;;;;5053388;28;20419;-48
2021/10/15 07:35:35;;;;;;;6.00;5.40;;;13.00;58.60;;;;;;5052483;28;20450;-44
2021/10/15 07:38:01;;;;;;;6.33;5.73;;;13.20;58.80;;;;;;5053109;28;20636;-44
2021/10/15 07:40:27;;;;;;;6.00;5.50;;;13.30;58.90;;;;;;5050587;28;20223;-43
2021/10/15 07:42:52;;;;;;;6.17;5.20;;;13.50;58.80;;;;;;5052994;28;20846;-44
2021/10/15 07:45:18;;;;;;;5.43;4.90;;;13.40;58.90;;;;;;5052335;28;20548;-45
2021/10/15 07:47:44;;;;;;;7.30;6.60;;;13.40;58.70;;;;;;5052996;28;20204;-44
2021/10/15 07:50:09;;;;;;;6.03;5.43;;;13.50;58.90;;;;;;5051678;28;20233;-44
2021/10/15 07:52:38;;;;;;;5.80;5.00;;;13.70;58.90;;;;;;5052941;28;20664;-43
2021/10/15 07:55:04;;;;;;;5.83;5.33;;;13.60;58.30;;;;;;5052264;28;20228;-43
2021/10/15 07:57:29;;;;;;;6.13;5.27;;;13.20;60.10;;;;;;5050521;28;20470;-43
2021/10/15 07:59:55;;;;;;;6.20;5.60;;;13.40;60.90;;;;;;5051568;28;20348;-46
2021/10/15 08:02:24;;;;;;;7.53;5.57;;;13.60;59.70;;;;;;5052800;28;20204;-44
2021/10/15 08:04:50;;;;;;;4.87;4.37;;;13.70;59.80;;;;;;5052267;28;20439;-44
2021/10/15 08:07:15;;;;;;;6.53;5.93;;;14.00;59.40;;;;;;5049956;28;20580;-44
2021/10/15 08:09:41;;;;;;;7.30;5.23;;;14.20;58.90;;;;;;5051557;28;20185;-44
2021/10/15 08:12:07;;;;;;;5.20;4.70;;;14.40;58.60;;;;;;5052707;28;20192;-47
2021/10/15 08:14:33;;;;;;;5.43;4.93;;;14.40;58.40;;;;;;5051778;28;20645;-43
2021/10/15 08:16:59;;;;;;;5.43;4.93;;;14.10;58.80;;;;;;5052251;28;20695;-43
2021/10/15 08:19:24;;;;;;;6.80;5.93;;;14.20;59.30;;;;;;5051242;28;20486;-44
2021/10/15 08:21:50;;;;;;;5.87;5.27;;;14.40;58.50;;;;;;5052691;28;20189;-47
2021/10/15 08:24:15;;;;;;;8.27;5.00;;;14.70;58.80;;;;;;5051634;28;20283;-45
2021/10/15 08:26:41;;;;;;;5.93;5.43;;;14.90;58.80;;;;;;5052253;28;20194;-46
2021/10/15 08:29:08;;;;;;;5.70;5.20;;;15.10;57.80;;;;;;5051117;28;20286;-44
2021/10/15 08:31:33;;;;;;;6.90;6.20;;;15.20;57.60;;;;;;5038094;28;20844;-50
2021/10/15 08:34:00;;;;;;;10.57;5.97;;;15.20;57.20;;;;;;5050425;28;20423;-49
2021/10/15 08:36:25;;;;;;;6.30;5.80;;;15.30;57.50;;;;;;5051856;28;20709;-43
2021/10/15 08:38:52;;;;;;;6.60;4.80;;;15.40;57.40;;;;;;5051253;28;20486;-50
2021/10/15 08:41:25;;;;;;;6.20;5.60;;;15.60;56.80;;;;;;5052128;28;20188;-44
2021/10/15 08:43:53;;;;;;;6.47;5.87;;;15.70;56.40;;;;;;5051285;28;20459;-50
2021/10/15 08:46:21;;;;;;;6.20;5.60;;;15.90;55.90;;;;;;5051979;28;20435;-44
2021/10/15 08:48:47;;;;;;;10.30;5.90;;;16.10;55.20;;;;;;5051042;28;20467;-45
2021/10/15 08:51:14;;;;;;;5.90;4.90;;;16.20;54.80;;;;;;5051561;28;20438;-49
2021/10/15 08:53:55;;;;;;;5.20;4.70;;;16.40;54.50;;;;;;5051861;28;20436;-45
2021/10/15 08:56:22;;;;;;;7.30;5.53;;;16.60;53.10;;;;;;5051891;28;20423;-46
2021/10/15 08:58:55;;;;;;;5.10;4.60;;;16.60;51.80;;;;;;5047296;28;20483;-45
2021/10/15 09:01:20;;;;;;;4.90;4.40;;;16.60;51.60;;;;;;5051954;28;20419;-48
2021/10/15 09:03:46;;;;;;;5.77;5.27;;;16.50;51.50;;;;;;5051373;28;20420;-49
2021/10/15 09:06:12;;;;;;;5.90;5.13;;;16.40;51.00;;;;;;5051544;28;20196;-49
2021/10/15 09:08:45;;;;;;;7.13;5.00;;;16.40;50.90;;;;;;5051334;28;20617;-44
2021/10/15 09:11:49;;;;;;;6.33;5.00;;;16.60;51.80;;;;;;5051178;28;20497;-43
2021/10/15 09:14:22;;;;;;;5.07;4.57;;;16.80;51.50;;;;;;4970222;28;20589;-44
2021/10/15 09:17:01;;;;;;;7.33;4.90;;;17.10;50.60;;;;;;4970474;28;20435;-44
2021/10/15 09:19:40;;;;;;;6.63;5.40;;;17.30;50.10;;;;;;5017758;28;20521;-44
2021/10/15 09:22:19;;;;;;;7.50;4.73;;;17.60;49.00;;;;;;5051475;28;20439;-46
2021/10/15 09:24:55;;;;;;;7.53;5.53;;;17.80;48.40;;;;;;5049142;28;20477;-45
2021/10/15 09:27:33;;;;;;;5.10;4.60;;;18.00;48.10;;;;;;5051474;28;20817;-45
2021/10/15 09:30:05;;;;;;;4.90;4.40;;;18.10;47.40;;;;;;5037958;28;20423;-48
2021/10/15 09:32:34;;;;;;;4.17;3.80;;;18.10;47.20;;;;;;5051308;28;20836;-45
2021/10/15 09:35:01;;;;;;;5.90;4.13;;;18.20;47.10;;;;;;5050930;28;20829;-44
2021/10/15 09:37:29;;;;;;;5.10;4.60;;;18.40;46.40;;;;;;5051498;28;20470;-48
2021/10/15 09:40:18;;;;;;;5.77;5.27;;;18.40;46.60;;;;;;5050799;28;20912;-48
2021/10/15 09:42:50;;;;;;;4.80;4.30;;;18.30;47.20;;;;;;5051184;28;20443;-45
2021/10/15 09:45:21;;;;;;;7.63;4.80;;;18.50;47.80;;;;;;5050690;28;20536;-45
2021/10/15 09:47:55;;;;;;;4.97;4.43;;;18.70;48.50;;;;;;5051647;28;20477;-45
2021/10/15 09:50:25;;;;;;;5.97;5.17;;;18.80;48.10;;;;;;5049153;28;20867;-47
2021/10/15 09:52:55;;;;;;;4.70;4.20;;;19.10;48.30;;;;;;5049492;28;20419;-48
2021/10/15 09:55:50;;;;;;;4.60;4.20;;;19.30;47.50;;;;;;5051093;28;20517;-48
2021/10/15 09:58:19;;;;;;;4.47;4.17;;;19.50;46.90;;;;;;5031884;28;20525;-50
2021/10/15 10:00:46;;;;;;;4.33;3.93;;;19.70;46.40;;;;;;5050114;28;20961;-47
2021/10/15 10:03:14;;;;;;;3.83;3.53;;;19.80;45.80;;;;;;5050693;28;20465;-48
2021/10/15 10:05:40;;;;;;;4.23;3.67;;;20.00;46.00;;;;;;5050535;28;20434;-45
2021/10/15 10:08:06;;;;;;;3.90;3.60;;;20.20;46.70;;;;;;5051019;28;20431;-47
2021/10/15 10:10:35;;;;;;;3.53;3.23;;;20.40;45.70;;;;;;5050431;28;20650;-46
2021/10/15 10:13:01;;;;;;;6.63;3.40;;;20.40;45.40;;;;;;5051027;28;20423;-46
2021/10/15 10:15:30;;;;;;;6.73;3.77;;;20.50;44.20;;;;;;5050374;28;20489;-48
2021/10/15 10:18:13;;;;;;;5.00;4.50;;;20.60;43.90;;;;;;5048967;28;20423;-49
2021/10/15 10:20:44;;;;;;;4.27;3.97;;;20.60;43.40;;;;;;5050039;28;20488;-46
2021/10/15 10:23:31;;;;;;;5.50;4.53;;;20.60;45.10;;;;;;5050963;28;20480;-47
2021/10/15 10:26:03;;;;;;;4.20;3.77;;;20.80;44.50;;;;;;5050264;28;20529;-50
2021/10/15 10:28:30;;;;;;;5.67;4.30;;;20.90;44.20;;;;;;5050761;28;20423;-46
2021/10/15 10:30:59;;;;;;;5.13;4.70;;;21.00;44.40;;;;;;5052339;28;20918;-48
2021/10/15 10:33:26;;;;;;;5.30;4.80;;;21.20;43.40;;;;;;5054350;28;20439;-48
2021/10/15 10:35:52;;;;;;;4.47;4.00;;;21.30;42.90;;;;;;5053921;28;20427;-47
2021/10/15 10:38:26;;;;;;;4.60;4.20;;;21.30;44.10;;;;;;5054404;28;20470;-48
2021/10/15 10:41:00;;;;;;;6.00;4.20;;;21.30;43.60;;;;;;5053460;28;20431;-48
2021/10/15 10:43:44;;;;;;;5.67;4.43;;;21.20;42.80;;;;;;5054001;28;20418;-49
2021/10/15 10:46:24;;;;;;;4.97;4.40;;;21.30;43.50;;;;;;5051959;28;20419;-48
2021/10/15 10:48:50;;;;;;;4.40;4.00;;;21.40;43.50;;;;;;5053275;28;20899;-48
2021/10/15 10:51:26;;;;;;;4.73;4.23;;;21.60;43.20;;;;;;5053641;28;20502;-48
2021/10/15 10:56:49;;;;;;;3.80;3.47;;;21.90;42.80;;;;;;5054067;28;20439;-49
2021/10/15 10:59:18;;;;;;;4.33;4.03;;;21.90;42.90;;;;;;5045719;28;20475;-47
2021/10/15 11:02:16;;;;;;;7.40;4.17;;;22.00;41.70;;;;;;5053925;28;20538;-45
2021/10/15 11:04:41;;;;;;;4.60;3.93;;;22.00;42.00;;;;;;5053278;28;20430;-44
2021/10/15 11:07:21;;;;;;;5.00;4.47;;;21.90;42.10;;;;;;5053849;28;20434;-44
2021/10/15 11:09:52;;;;;;;4.17;3.83;;;22.00;42.20;;;;;;5052455;28;20279;-46
2021/10/15 11:12:27;;;;;;;4.60;4.20;;;21.90;42.20;;;;;;5052227;28;20432;-45
2021/10/15 11:14:55;;;;;;;4.57;4.17;;;21.90;42.00;;;;;;5053051;28;20430;-45
2021/10/15 11:17:28;;;;;;;5.10;4.70;;;21.90;41.60;;;;;;5053938;28;20955;-46
2021/10/15 11:20:10;;;;;;;5.90;4.57;;;21.90;41.90;;;;;;5052212;28;20482;-44
2021/10/15 11:22:37;;;;;;;4.10;3.80;;;21.90;41.90;;;;;;5053550;28;20440;-45
2021/10/15 11:25:05;;;;;;;7.27;4.30;;;21.80;42.50;;;;;;5052918;28;20915;-44
2021/10/15 11:27:31;;;;;;;5.47;4.03;;;21.80;42.40;;;;;;5053242;28;20520;-44
2021/10/15 11:29:58;;;;;;;4.87;4.40;;;21.90;43.30;;;;;;5052311;28;20560;-44
2021/10/15 11:32:42;;;;;;;4.90;4.40;;;22.00;42.60;;;;;;5053322;28;20354;-44
2021/10/15 11:35:23;;;;;;;5.17;4.77;;;22.10;42.60;;;;;;5052601;28;20449;-45
2021/10/15 11:37:56;;;;;;;6.13;5.00;;;22.20;42.90;;;;;;5051430;28;20438;-44
2021/10/15 11:40:25;;;;;;;4.30;3.90;;;22.20;43.00;;;;;;5052302;28;20448;-46
2021/10/15 11:42:51;;;;;;;4.60;3.83;;;22.30;42.60;;;;;;5052949;28;20431;-44
2021/10/15 11:45:32;;;;;;;3.60;3.30;;;22.50;42.70;;;;;;5052724;28;20419;-44
2021/10/15 11:48:20;;;;;;;3.67;3.33;;;22.60;41.90;;;;;;5052806;28;20453;-46
2021/10/15 11:51:06;;;;;;;4.23;3.17;;;22.30;41.20;;;;;;5052417;28;20852;-44
2021/10/15 11:53:37;;;;;;;3.70;3.40;;;22.30;41.50;;;;;;5052940;28;20518;-45
2021/10/15 11:56:05;;;;;;;5.77;3.70;;;22.40;41.70;;;;;;5052352;28;20477;-46
2021/10/15 11:58:40;;;;;;;3.37;3.13;;;22.40;41.30;;;;;;5050211;28;20474;-44
2021/10/15 12:01:12;;;;;;;6.00;3.23;;;22.30;41.60;;;;;;5052176;28;20446;-44
2021/10/15 12:03:43;;;;;;;4.80;3.30;;;22.30;41.40;;;;;;5050915;28;20467;-44
2021/10/15 12:06:32;;;;;;;3.40;2.97;;;22.40;41.20;;;;;;5052233;28;20550;-44
2021/10/15 12:09:05;;;;;;;7.80;3.83;;;22.40;41.80;;;;;;5039988;28;20450;-44
2021/10/15 12:11:51;;;;;;;5.70;3.77;;;22.40;41.70;;;;;;5052455;28;20758;-44
2021/10/15 12:14:30;;;;;;;3.90;3.33;;;22.40;41.70;;;;;;5051271;28;20438;-44
2021/10/15 12:16:59;;;;;;;3.73;3.40;;;22.50;41.70;;;;;;5052362;28;20445;-45
2021/10/15 12:19:33;;;;;;;3.30;3.00;;;22.50;41.30;;;;;;5051245;28;20471;-46
2021/10/15 12:22:10;;;;;;;5.87;3.63;;;22.50;41.40;;;;;;5052703;28;20446;-44
2021/10/15 12:24:35;;;;;;;4.17;3.30;;;22.50;42.40;;;;;;5051881;28;20442;-44
2021/10/15 12:27:12;;;;;;;3.77;3.47;;;22.70;42.30;;;;;;5052220;28;20419;-46
2021/10/15 12:29:41;;;;;;;4.10;3.70;;;22.60;41.40;;;;;;5050915;28;20690;-47
2021/10/15 12:32:09;;;;;;;5.33;3.70;;;22.70;40.90;;;;;;5051356;28;20423;-44
2021/10/15 12:34:55;;;;;;;4.10;3.80;;;22.60;41.10;;;;;;5051478;28;20427;-44
2021/10/15 12:37:27;;;;;;;4.27;3.17;;;22.60;40.80;;;;;;5052108;28;20977;-45
2021/10/15 12:40:14;;;;;;;4.00;3.13;;;22.60;40.80;;;;;;5051047;28;20489;-45
2021/10/15 12:42:42;;;;;;;3.63;3.33;;;22.50;40.80;;;;;;5051963;28;20469;-44
2021/10/15 12:45:10;;;;;;;5.50;3.90;;;22.50;41.90;;;;;;5051199;28;20552;-45
2021/10/15 12:47:37;;;;;;;4.30;3.40;;;22.50;43.40;;;;;;5051785;28;20469;-44
2021/10/15 12:50:05;;;;;;;5.67;4.00;;;22.60;42.70;;;;;;5050828;28;20481;-44
2021/10/15 12:52:37;;;;;;;6.10;3.60;;;22.80;42.60;;;;;;5051208;28;20423;-44
2021/10/15 12:55:06;;;;;;;3.27;3.03;;;22.90;41.00;;;;;;5051349;28;20517;-44
2021/10/15 12:57:36;;;;;;;4.67;3.90;;;23.10;41.90;;;;;;5048230;28;20488;-46
2021/10/15 13:00:19;;;;;;;5.23;4.07;;;23.20;42.20;;;;;;5050713;28;20530;-44
2021/10/15 13:03:00;;;;;;;5.17;3.50;;;23.40;40.90;;;;;;5051665;28;20530;-46
2021/10/15 13:05:27;;;;;;;3.57;3.27;;;23.50;40.60;;;;;;5050836;28;20815;-44
2021/10/15 13:07:54;;;;;;;4.80;3.73;;;23.60;41.20;;;;;;5051826;28;20457;-45
2021/10/15 13:10:24;;;;;;;4.00;3.70;;;23.90;41.70;;;;;;5050770;28;20454;-44